createdAt,value
2023-02-24T00:02:05.998Z,214.07
2023-02-24T00:04:39.673Z,202.37
2023-02-24T00:07:16.917Z,206.77
2023-02-24T00:09:49.022Z,206.03
2023-02-24T00:12:17.139Z,201.03
2023-02-24T00:14:45.672Z,206.97
2023-02-24T00:17:16.552Z,194.77
2023-02-24T00:19:44.206Z,196.97
2023-02-24T00:22:12.804Z,199.53
2023-02-24T00:24:40.247Z,203.80
2023-02-24T00:27:08.142Z,198.37
2023-02-24T00:29:40.234Z,201.50
2023-02-24T00:32:12.584Z,196.50
2023-02-24T00:34:40.947Z,197.00
2023-02-24T00:37:08.499Z,201.50
2023-02-24T00:39:41.696Z,202.83
2023-02-24T00:42:11.682Z,204.07
2023-02-24T00:44:46.278Z,197.70
2023-02-24T00:47:17.073Z,201.60
2023-02-24T00:49:44.777Z,209.67
2023-02-24T00:52:20.633Z,196.63
2023-02-24T00:54:49.755Z,207.93
2023-02-24T00:57:23.436Z,205.70
2023-02-24T00:59:51.985Z,209.43
2023-02-24T01:02:19.989Z,201.93
2023-02-24T01:04:49.992Z,201.50
2023-02-24T01:07:17.431Z,207.57
2023-02-24T01:09:45.088Z,197.67
2023-02-24T01:12:32.105Z,209.93
2023-02-24T01:14:59.702Z,207.93
2023-02-24T01:17:27.154Z,201.43
2023-02-24T01:19:55.158Z,207.83
2023-02-24T01:22:23.909Z,212.27
2023-02-24T01:24:51.087Z,203.30
2023-02-24T01:27:19.570Z,198.53
2023-02-24T01:29:49.918Z,209.80
2023-02-24T01:32:21.241Z,213.87
2023-02-24T01:34:52.302Z,201.63
2023-02-24T01:37:20.706Z,204.23
2023-02-24T01:39:49.653Z,208.07
2023-02-24T01:42:20.423Z,211.07
2023-02-24T01:44:48.075Z,223.30
2023-02-24T01:47:20.907Z,214.07
2023-02-24T01:49:53.073Z,221.80
2023-02-24T01:52:27.389Z,197.83
2023-02-24T01:55:15.072Z,216.00
2023-02-24T01:57:43.320Z,203.63
2023-02-24T02:00:40.400Z,210.73
2023-02-24T02:03:31.862Z,215.33
2023-02-24T02:06:03.878Z,201.20
2023-02-24T02:08:32.591Z,205.17
2023-02-24T02:11:07.031Z,206.23
2023-02-24T02:13:35.966Z,204.50
2023-02-24T02:16:21.318Z,212.93
2023-02-24T02:19:00.696Z,207.73
2023-02-24T02:21:56.680Z,202.27
2023-02-24T02:24:55.250Z,201.47
2023-02-24T02:28:22.752Z,201.97
2023-02-24T02:31:28.994Z,201.97
2023-02-24T02:34:27.618Z,199.37
2023-02-24T02:37:13.923Z,199.30
2023-02-24T02:39:47.370Z,196.93
2023-02-24T02:42:24.330Z,204.10
2023-02-24T02:45:14.838Z,202.60
2023-02-24T02:47:55.959Z,208.00
2023-02-24T02:50:28.516Z,202.03
2023-02-24T02:53:08.195Z,204.57
2023-02-24T02:55:59.567Z,195.50
2023-02-24T02:58:31.877Z,205.27
2023-02-24T03:01:02.769Z,198.37
2023-02-24T03:03:53.716Z,207.10
2023-02-24T03:06:31.176Z,213.60
2023-02-24T03:09:16.016Z,201.80
2023-02-24T03:11:53.801Z,202.57
2023-02-24T03:14:27.173Z,207.50
2023-02-24T03:16:55.877Z,214.70
2023-02-24T03:19:32.175Z,215.03
2023-02-24T03:22:13.587Z,209.83
2023-02-24T03:24:45.086Z,210.90
2023-02-24T03:27:44.981Z,219.87
2023-02-24T03:30:22.301Z,206.30
2023-02-24T03:32:59.760Z,204.97
2023-02-24T03:35:34.436Z,209.10
2023-02-24T03:38:04.153Z,211.17
2023-02-24T03:40:34.252Z,209.03
2023-02-24T03:43:32.606Z,210.17
2023-02-24T03:46:01.511Z,207.90
2023-02-24T03:48:30.343Z,210.93
2023-02-24T03:50:59.499Z,202.60
2023-02-24T03:53:53.356Z,211.10
2023-02-24T03:56:22.429Z,214.90
2023-02-24T03:59:35.629Z,223.67
2023-02-24T04:02:19.669Z,213.87
2023-02-24T04:05:10.446Z,214.57
2023-02-24T04:08:04.129Z,216.83
2023-02-24T04:11:05.716Z,216.67
2023-02-24T04:13:47.388Z,213.90
2023-02-24T04:16:29.040Z,224.50
2023-02-24T04:19:09.183Z,210.10
2023-02-24T04:21:39.135Z,214.40
2023-02-24T04:24:15.255Z,211.97
2023-02-24T04:26:47.045Z,216.10
2023-02-24T04:29:23.911Z,223.77
2023-02-24T04:31:58.649Z,231.73
2023-02-24T04:34:26.481Z,226.77
2023-02-24T04:36:54.108Z,221.63
2023-02-24T04:39:23.558Z,229.33
2023-02-24T04:41:54.932Z,220.57
2023-02-24T04:44:22.703Z,225.40
2023-02-24T04:46:51.102Z,223.73
2023-02-24T04:49:20.046Z,221.27
2023-02-24T04:51:47.387Z,231.40
2023-02-24T04:54:20.026Z,217.07
2023-02-24T04:56:50.931Z,229.80
2023-02-24T04:59:19.873Z,220.93
2023-02-24T05:01:51.246Z,222.77
2023-02-24T05:04:18.898Z,232.57
2023-02-24T05:06:46.842Z,218.87
2023-02-24T05:09:18.249Z,234.27
2023-02-24T05:11:50.678Z,232.93
2023-02-24T05:14:25.000Z,222.47
2023-02-24T05:16:53.015Z,231.63
2023-02-24T05:19:39.422Z,226.63
2023-02-24T05:22:10.364Z,231.60
2023-02-24T05:24:38.651Z,227.60
2023-02-24T05:27:06.137Z,231.40
2023-02-24T05:29:35.528Z,220.77
2023-02-24T05:32:04.756Z,221.43
2023-02-24T05:34:33.636Z,226.83
2023-02-24T05:37:10.195Z,217.27
2023-02-24T05:39:37.980Z,231.60
2023-02-24T05:42:06.890Z,235.53
2023-02-24T05:44:35.800Z,238.27
2023-02-24T05:47:05.542Z,228.23
2023-02-24T05:49:35.278Z,231.40
2023-02-24T05:52:08.972Z,226.07
2023-02-24T05:54:42.647Z,211.60
2023-02-24T05:57:13.471Z,223.20
2023-02-24T05:59:41.997Z,238.83
2023-02-24T06:02:13.148Z,227.43
2023-02-24T06:04:51.603Z,222.70
2023-02-24T06:07:25.971Z,220.60
2023-02-24T06:09:57.344Z,226.70
2023-02-24T06:12:39.865Z,222.47
2023-02-24T06:15:08.301Z,222.53
2023-02-24T06:17:35.781Z,222.97
2023-02-24T06:20:13.149Z,226.47
2023-02-24T06:22:42.487Z,219.80
2023-02-24T06:25:12.002Z,216.17
2023-02-24T06:27:39.454Z,224.97
2023-02-24T06:30:10.395Z,220.40
2023-02-24T06:32:38.133Z,216.53
2023-02-24T06:35:06.140Z,223.70
2023-02-24T06:37:35.846Z,221.80
2023-02-24T06:40:09.035Z,230.23
2023-02-24T06:42:36.308Z,220.90
2023-02-24T06:45:04.403Z,225.60
2023-02-24T06:47:32.665Z,232.53
2023-02-24T06:50:00.108Z,212.70
2023-02-24T06:52:27.273Z,222.80
2023-02-24T06:54:54.698Z,252.40
2023-02-24T06:57:23.560Z,250.30
2023-02-24T06:59:50.993Z,237.03
2023-02-24T07:02:18.408Z,229.43
2023-02-24T07:04:45.962Z,223.13
2023-02-24T07:07:17.427Z,258.20
2023-02-24T07:09:45.489Z,224.03
2023-02-24T07:12:13.209Z,220.20
2023-02-24T07:14:40.592Z,218.27
2023-02-24T07:17:08.639Z,214.23
2023-02-24T07:19:36.815Z,214.03
2023-02-24T07:22:04.919Z,233.97
2023-02-24T07:24:39.289Z,233.80
2023-02-24T07:27:12.425Z,233.40
2023-02-24T07:29:39.924Z,240.43
2023-02-24T07:32:09.453Z,267.73
2023-02-24T07:34:40.233Z,228.00
2023-02-24T07:37:09.000Z,286.53
2023-02-24T07:39:40.662Z,242.27
2023-02-24T07:42:10.453Z,243.07
2023-02-24T07:44:46.697Z,224.73
2023-02-24T07:47:16.021Z,223.40
2023-02-24T07:49:43.807Z,217.43
2023-02-24T07:52:11.704Z,213.50
2023-02-24T07:54:39.541Z,214.37
2023-02-24T07:57:13.701Z,216.97
2023-02-24T07:59:47.628Z,221.43
2023-02-24T08:02:15.861Z,216.50
2023-02-24T08:04:48.250Z,220.47
2023-02-24T08:07:16.199Z,215.03
2023-02-24T08:10:04.057Z,214.33
2023-02-24T08:12:31.160Z,209.80
2023-02-24T08:15:00.289Z,205.83
2023-02-24T08:17:28.092Z,213.83
2023-02-24T08:20:14.663Z,211.33
2023-02-24T08:22:46.648Z,205.50
2023-02-24T08:25:19.637Z,211.50
2023-02-24T08:28:12.969Z,205.60
2023-02-24T08:30:47.751Z,205.53
2023-02-24T08:33:22.036Z,204.47
2023-02-24T08:36:02.557Z,210.13
2023-02-24T08:38:41.989Z,199.77
2023-02-24T08:41:18.428Z,199.83
2023-02-24T08:43:47.172Z,202.17
2023-02-24T08:46:32.825Z,215.23
2023-02-24T08:49:00.920Z,205.40
2023-02-24T08:51:34.739Z,206.30
2023-02-24T08:54:15.372Z,201.57
2023-02-24T08:56:49.298Z,198.53
2023-02-24T08:59:38.477Z,206.33
2023-02-24T09:02:19.191Z,206.77
2023-02-24T09:04:53.351Z,203.23
2023-02-24T09:07:27.697Z,203.43
2023-02-24T09:09:58.882Z,203.27
2023-02-24T09:12:29.256Z,205.53
2023-02-24T09:15:04.794Z,197.90
2023-02-24T09:17:50.012Z,209.97
2023-02-24T09:20:28.004Z,207.20
2023-02-24T09:23:09.716Z,216.63
2023-02-24T09:25:44.923Z,210.90
2023-02-24T09:28:18.619Z,223.67
2023-02-24T09:30:58.852Z,212.57
2023-02-24T09:33:41.579Z,219.53
2023-02-24T09:36:20.760Z,221.10
2023-02-24T09:38:59.830Z,218.87
2023-02-24T09:42:03.895Z,217.03
2023-02-24T09:44:37.286Z,213.80
2023-02-24T09:47:31.291Z,223.13
2023-02-24T09:50:32.969Z,208.10
2023-02-24T09:53:14.228Z,269.07
2023-02-24T09:56:09.936Z,321.13
2023-02-24T09:58:58.672Z,278.63
2023-02-24T10:01:34.561Z,335.17
2023-02-24T10:04:27.479Z,418.83
2023-02-24T10:07:09.110Z,307.83
2023-02-24T10:10:19.510Z,291.60
2023-02-24T10:13:15.111Z,338.53
2023-02-24T10:15:58.707Z,240.30
2023-02-24T10:18:30.745Z,237.80
2023-02-24T10:21:15.631Z,256.13
2023-02-24T10:24:29.378Z,214.33
2023-02-24T10:27:01.186Z,205.60
2023-02-24T10:30:04.650Z,206.20
2023-02-24T10:32:51.874Z,196.23
2023-02-24T10:35:22.080Z,186.87
2023-02-24T10:37:49.397Z,222.87
2023-02-24T10:40:26.606Z,222.90
2023-02-24T10:43:10.625Z,193.10
2023-02-24T10:45:47.358Z,188.30
2023-02-24T10:48:41.495Z,190.17
2023-02-24T10:51:30.269Z,197.67
2023-02-24T10:54:25.020Z,189.73
2023-02-24T10:57:00.703Z,182.03
2023-02-24T10:59:48.214Z,189.50
2023-02-24T11:02:24.731Z,185.53
2023-02-24T11:05:03.192Z,186.40
2023-02-24T11:07:45.262Z,180.20
2023-02-24T11:10:26.457Z,184.30
2023-02-24T11:13:14.263Z,198.70
2023-02-24T11:16:12.883Z,218.40
2023-02-24T11:18:45.720Z,190.57
2023-02-24T11:21:14.488Z,202.73
2023-02-24T11:23:48.399Z,209.27
2023-02-24T11:26:20.433Z,198.70
2023-02-24T11:29:17.577Z,195.87
2023-02-24T11:32:14.127Z,192.33
2023-02-24T11:34:59.535Z,193.40
2023-02-24T11:37:43.401Z,191.97
2023-02-24T11:40:17.452Z,201.33
2023-02-24T11:43:07.393Z,189.47
2023-02-24T11:45:54.322Z,196.00
2023-02-24T11:48:34.062Z,194.30
2023-02-24T11:51:04.533Z,195.43
2023-02-24T11:53:46.798Z,188.80
2023-02-24T11:56:36.347Z,197.13
2023-02-24T11:59:12.881Z,196.23
2023-02-24T12:02:05.658Z,185.67
2023-02-24T12:05:02.720Z,188.20
2023-02-24T12:07:39.722Z,182.63
2023-02-24T12:10:31.584Z,188.73
2023-02-24T12:13:32.796Z,185.07
2023-02-24T12:16:17.813Z,182.00
2023-02-24T12:19:32.260Z,188.67
2023-02-24T12:22:14.566Z,187.40
2023-02-24T12:24:51.768Z,185.37
2023-02-24T12:28:18.665Z,197.50
2023-02-24T12:30:49.153Z,192.93
2023-02-24T12:33:49.496Z,173.50
2023-02-24T12:36:19.449Z,191.93
2023-02-24T12:38:58.755Z,185.57
2023-02-24T12:41:45.064Z,187.13
2023-02-24T12:44:33.359Z,194.07
2023-02-24T12:47:14.356Z,204.00
2023-02-24T12:49:46.621Z,356.03
2023-02-24T12:52:58.893Z,204.97
2023-02-24T12:55:41.110Z,201.37
2023-02-24T12:58:14.598Z,203.90
2023-02-24T13:01:00.528Z,194.20
2023-02-24T13:03:56.715Z,234.70
2023-02-24T13:06:38.538Z,212.23
2023-02-24T13:09:26.729Z,229.60
2023-02-24T13:12:05.934Z,222.17
2023-02-24T13:14:33.400Z,221.60
2023-02-24T13:17:23.460Z,220.13
2023-02-24T13:19:53.876Z,208.97
2023-02-24T13:22:26.502Z,217.53
2023-02-24T13:25:08.881Z,206.13
2023-02-24T13:27:39.608Z,199.37
2023-02-24T13:30:12.482Z,200.43
2023-02-24T13:32:44.449Z,195.27
2023-02-24T13:35:18.033Z,199.17
2023-02-24T13:37:47.681Z,203.03
2023-02-24T13:40:23.592Z,205.07
2023-02-24T13:42:57.188Z,196.37
2023-02-24T13:45:36.290Z,214.40
2023-02-24T13:48:57.645Z,208.03
2023-02-24T13:51:53.445Z,202.83
2023-02-24T13:54:51.009Z,209.13
2023-02-24T13:57:36.810Z,227.83
2023-02-24T14:00:25.031Z,203.87
2023-02-24T14:02:53.381Z,202.33
2023-02-24T14:05:33.272Z,204.00
2023-02-24T14:08:01.075Z,201.60
2023-02-24T14:10:31.691Z,198.20
2023-02-24T14:13:18.309Z,208.33
2023-02-24T14:15:47.306Z,220.70
2023-02-24T14:18:27.672Z,209.47
2023-02-24T14:20:56.806Z,229.70
2023-02-24T14:23:29.915Z,225.87
2023-02-24T14:26:05.680Z,224.90
2023-02-24T14:28:39.552Z,222.47
2023-02-24T14:31:13.206Z,215.43
2023-02-24T14:33:43.166Z,213.83
2023-02-24T14:36:26.623Z,196.67
2023-02-24T14:39:22.943Z,214.17
2023-02-24T14:41:52.356Z,203.83
2023-02-24T14:44:27.080Z,206.77
2023-02-24T14:47:07.825Z,216.33
2023-02-24T14:49:36.289Z,208.30
2023-02-24T14:52:17.005Z,208.63
2023-02-24T14:54:57.734Z,206.23
2023-02-24T14:57:30.628Z,209.23
2023-02-24T15:00:12.289Z,214.30
2023-02-24T15:02:46.860Z,209.33
2023-02-24T15:05:14.378Z,207.90
2023-02-24T15:07:45.363Z,205.07
2023-02-24T15:10:38.942Z,222.73
2023-02-24T15:13:11.112Z,209.83
2023-02-24T15:15:39.508Z,198.17
2023-02-24T15:18:20.074Z,194.63
2023-02-24T15:20:47.610Z,207.83
2023-02-24T15:23:30.833Z,212.80
2023-02-24T15:25:58.306Z,197.13
2023-02-24T15:28:37.389Z,200.87
2023-02-24T15:31:21.433Z,195.17
2023-02-24T15:34:00.319Z,198.83
2023-02-24T15:36:34.646Z,197.10
2023-02-24T15:39:10.591Z,200.03
2023-02-24T15:41:41.528Z,197.83
2023-02-24T15:44:30.450Z,187.07
2023-02-24T15:47:00.240Z,193.80
2023-02-24T15:49:27.769Z,203.17
2023-02-24T15:51:59.643Z,189.63
2023-02-24T15:54:34.981Z,198.47
2023-02-24T15:57:05.333Z,198.60
2023-02-24T15:59:32.820Z,200.33
2023-02-24T16:02:00.244Z,207.87
2023-02-24T16:04:27.875Z,207.47
2023-02-24T16:06:57.699Z,203.63
2023-02-24T16:09:33.736Z,209.47
2023-02-24T16:12:07.150Z,232.23
2023-02-24T16:14:34.883Z,262.10
2023-02-24T16:17:08.929Z,233.60
2023-02-24T16:19:37.267Z,226.03
2023-02-24T16:22:04.681Z,302.83
2023-02-24T16:24:32.078Z,205.80
2023-02-24T16:26:59.543Z,195.50
2023-02-24T16:29:27.054Z,249.17
2023-02-24T16:31:54.667Z,226.07
2023-02-24T16:34:22.326Z,219.23
2023-02-24T16:36:49.814Z,225.50
2023-02-24T16:39:17.322Z,227.60
2023-02-24T16:41:44.815Z,226.13
2023-02-24T16:44:12.327Z,229.73
2023-02-24T16:46:41.303Z,237.27
2023-02-24T16:49:14.063Z,224.33
2023-02-24T16:51:41.504Z,222.17
2023-02-24T16:54:09.071Z,235.43
2023-02-24T16:56:36.571Z,201.27
2023-02-24T16:59:04.356Z,198.83
2023-02-24T17:01:32.015Z,195.10
2023-02-24T17:03:59.537Z,189.77
2023-02-24T17:06:27.873Z,194.33
2023-02-24T17:08:55.815Z,199.97
2023-02-24T17:11:26.664Z,194.90
2023-02-24T17:13:54.161Z,202.70
2023-02-24T17:16:21.975Z,206.40
2023-02-24T17:18:49.604Z,188.83
2023-02-24T17:21:18.158Z,193.27
2023-02-24T17:23:45.928Z,193.73
2023-02-24T17:26:16.494Z,206.60
2023-02-24T17:28:44.178Z,189.77
2023-02-24T17:31:12.413Z,202.70
2023-02-24T17:33:41.005Z,206.80
2023-02-24T17:36:08.199Z,207.87
2023-02-24T17:38:35.709Z,194.67
2023-02-24T17:41:03.301Z,198.40
2023-02-24T17:43:30.787Z,201.47
2023-02-24T17:45:58.315Z,201.23
2023-02-24T17:48:25.755Z,210.10
2023-02-24T17:50:53.516Z,230.07
2023-02-24T17:53:20.934Z,285.40
2023-02-24T17:56:02.048Z,320.03
2023-02-24T17:58:30.655Z,378.30
2023-02-24T18:00:58.203Z,479.10
2023-02-24T18:03:25.681Z,460.97
2023-02-24T18:06:01.398Z,336.73
2023-02-24T18:08:30.550Z,378.33
2023-02-24T18:10:59.181Z,324.57
2023-02-24T18:13:29.081Z,309.37
2023-02-24T18:15:56.632Z,288.03
2023-02-24T18:18:25.634Z,231.67
2023-02-24T18:20:53.156Z,236.70
2023-02-24T18:23:20.662Z,282.43
2023-02-24T18:25:48.119Z,320.50
2023-02-24T18:28:15.589Z,488.23
2023-02-24T18:30:43.074Z,400.20
2023-02-24T18:33:10.768Z,418.17
2023-02-24T18:35:38.893Z,382.77
2023-02-24T18:38:06.622Z,267.93
2023-02-24T18:40:34.030Z,294.63
2023-02-24T18:43:01.526Z,275.93
2023-02-24T18:45:29.186Z,264.03
2023-02-24T18:47:56.704Z,275.30
2023-02-24T18:50:25.187Z,298.23
2023-02-24T18:52:52.749Z,324.00
2023-02-24T18:55:22.174Z,293.83
2023-02-24T18:57:49.699Z,245.37
2023-02-24T19:00:17.437Z,231.33
2023-02-24T19:02:44.983Z,248.93
2023-02-24T19:05:12.125Z,265.53
2023-02-24T19:07:39.599Z,281.07
2023-02-24T19:10:07.928Z,263.77
2023-02-24T19:12:35.216Z,238.23
2023-02-24T19:15:02.456Z,237.57
2023-02-24T19:17:29.959Z,215.07
2023-02-24T19:19:57.382Z,216.07
2023-02-24T19:22:24.808Z,219.40
2023-02-24T19:24:52.262Z,219.47
2023-02-24T19:27:19.693Z,214.77
2023-02-24T19:29:47.144Z,213.60
2023-02-24T19:32:14.704Z,227.43
2023-02-24T19:34:42.872Z,208.77
2023-02-24T19:37:10.370Z,212.10
2023-02-24T19:39:37.961Z,204.50
2023-02-24T19:42:06.569Z,199.73
2023-02-24T19:44:34.353Z,201.27
2023-02-24T19:47:01.880Z,202.07
2023-02-24T19:49:29.334Z,198.33
2023-02-24T19:51:57.670Z,202.70
2023-02-24T19:54:25.327Z,204.57
2023-02-24T19:56:55.655Z,211.20
2023-02-24T19:59:23.281Z,205.50
2023-02-24T20:01:52.006Z,200.47
2023-02-24T20:04:19.843Z,204.13
2023-02-24T20:06:47.763Z,301.13
2023-02-24T20:09:21.408Z,200.47
2023-02-24T20:11:50.624Z,205.17
2023-02-24T20:14:19.868Z,203.07
2023-02-24T20:16:47.798Z,201.40
2023-02-24T20:19:16.063Z,199.80
2023-02-24T20:21:43.670Z,198.60
2023-02-24T20:24:14.425Z,197.73
2023-02-24T20:26:46.272Z,195.33
2023-02-24T20:29:14.730Z,195.10
2023-02-24T20:31:42.665Z,201.97
2023-02-24T20:34:10.763Z,187.17
2023-02-24T20:36:38.288Z,197.60
2023-02-24T20:39:08.479Z,203.60
2023-02-24T20:41:36.022Z,214.43
2023-02-24T20:44:03.181Z,204.60
2023-02-24T20:46:32.344Z,199.23
2023-02-24T20:49:03.126Z,203.47
2023-02-24T20:51:32.478Z,205.80
2023-02-24T20:54:00.087Z,207.13
2023-02-24T20:56:34.160Z,207.93
2023-02-24T20:59:14.400Z,201.00
2023-02-24T21:01:42.521Z,194.97
2023-02-24T21:04:10.705Z,190.10
2023-02-24T21:06:38.329Z,196.97
2023-02-24T21:09:06.301Z,183.47
2023-02-24T21:11:34.079Z,187.40
2023-02-24T21:14:01.568Z,190.57
2023-02-24T21:16:29.219Z,185.67
2023-02-24T21:18:58.844Z,187.27
2023-02-24T21:21:27.094Z,187.23
2023-02-24T21:23:55.225Z,192.10
2023-02-24T21:26:26.679Z,178.53
2023-02-24T21:28:57.445Z,191.67
2023-02-24T21:31:26.473Z,188.13
2023-02-24T21:33:54.468Z,185.70
2023-02-24T21:36:25.745Z,187.53
2023-02-24T21:38:54.202Z,187.83
2023-02-24T21:41:22.390Z,198.60
2023-02-24T21:43:54.830Z,204.90
2023-02-24T21:46:24.685Z,210.33
2023-02-24T21:48:57.713Z,205.60
2023-02-24T21:51:26.654Z,217.60
2023-02-24T21:53:56.943Z,214.07
2023-02-24T21:56:29.922Z,206.87
2023-02-24T21:59:00.969Z,215.10
2023-02-24T22:01:38.316Z,213.63
2023-02-24T22:04:12.879Z,209.03
2023-02-24T22:06:41.890Z,201.73
2023-02-24T22:09:11.181Z,206.77
2023-02-24T22:11:41.208Z,205.53
2023-02-24T22:14:10.722Z,192.03
2023-02-24T22:16:38.440Z,194.70
2023-02-24T22:19:06.516Z,192.07
2023-02-24T22:21:34.432Z,187.77
2023-02-24T22:24:03.278Z,200.53
2023-02-24T22:26:32.235Z,193.43
2023-02-24T22:29:00.723Z,197.70
2023-02-24T22:31:31.550Z,195.60
2023-02-24T22:33:59.916Z,214.00
2023-02-24T22:36:34.477Z,196.07
2023-02-24T22:39:02.641Z,189.87
2023-02-24T22:41:33.908Z,199.70
2023-02-24T22:44:03.614Z,190.63
2023-02-24T22:46:34.289Z,186.30
2023-02-24T22:49:01.880Z,189.47
2023-02-24T22:51:29.490Z,188.07
2023-02-24T22:53:57.081Z,186.97
2023-02-24T22:56:29.775Z,188.00
2023-02-24T22:58:58.295Z,193.23
2023-02-24T23:01:31.868Z,188.27
2023-02-24T23:04:01.350Z,191.30
2023-02-24T23:06:30.335Z,186.63
2023-02-24T23:09:00.033Z,188.50
2023-02-24T23:11:30.295Z,195.03
2023-02-24T23:14:02.141Z,189.77
2023-02-24T23:16:33.706Z,198.63
2023-02-24T23:19:08.815Z,195.03
2023-02-24T23:21:42.875Z,194.57
2023-02-24T23:24:13.503Z,187.67
2023-02-24T23:26:45.621Z,189.07
2023-02-24T23:29:16.242Z,185.80
2023-02-24T23:31:44.046Z,182.17
2023-02-24T23:34:12.049Z,188.20
2023-02-24T23:36:43.696Z,188.20
2023-02-24T23:39:14.094Z,185.10
2023-02-24T23:41:41.681Z,175.50
2023-02-24T23:44:09.640Z,187.73
2023-02-24T23:46:37.538Z,186.63
2023-02-24T23:49:05.709Z,182.07
2023-02-24T23:51:47.109Z,190.83
2023-02-24T23:54:16.958Z,188.37
2023-02-24T23:56:44.499Z,182.47
2023-02-24T23:59:12.003Z,187.17
